Time;durP1;ratioP1;P1;durP2;ratioP2;P2;SDS_P1;SDS_P2;PMS_P1;PMS_P2;Temp;Humidity;BMP_temperature;BMP_pressure;BME280_temperature;BME280_humidity;BME280_pressure;Samples;Min_cycle;Max_cycle;Signal;HPM_P1;HPM_P2
2023/02/16 00:01:23;;;;;;;24.58;16.15;;;;;;;4.25;63.81;97650.97;5036634;28;20046;-78
2023/02/16 00:03:52;;;;;;;24.35;16.63;;;;;;;4.25;64.04;97650.97;5036635;28;20057;-78
2023/02/16 00:06:20;;;;;;;23.38;16.17;;;;;;;4.24;63.04;97657.06;5036423;28;20136;-78
2023/02/16 00:08:49;;;;;;;21.00;15.32;;;;;;;4.23;63.02;97665.75;5035556;28;20049;-78
2023/02/16 00:14:10;;;;;;;19.90;13.85;;;;;;;4.13;63.42;97663.88;5036162;28;20492;-78
2023/02/16 00:16:38;;;;;;;22.17;15.25;;;;;;;4.10;63.49;97660.69;5036414;28;20060;-78
2023/02/16 00:19:17;;;;;;;20.60;15.40;;;;;;;4.14;64.83;97672.44;5035099;28;20514;-78
2023/02/16 00:21:45;;;;;;;24.15;16.08;;;;;;;4.23;64.09;97665.75;5036166;28;20049;-78
2023/02/16 00:24:13;;;;;;;26.58;19.10;;;;;;;4.23;64.24;97661.41;5036183;28;20483;-78
2023/02/16 00:26:41;;;;;;;29.50;19.35;;;;;;;4.18;64.53;97662.72;5037132;28;20079;-78
2023/02/16 00:29:16;;;;;;;31.15;18.90;;;;;;;4.10;65.24;97660.69;5036302;28;20060;-78
2023/02/16 00:31:44;;;;;;;26.85;18.35;;;;;;;4.00;65.03;97655.41;5036130;28;20555;-78
2023/02/16 00:34:32;;;;;;;30.50;18.77;;;;;;;3.89;66.17;97652.75;5035716;28;20049;-78
2023/02/16 00:37:01;;;;;;;27.75;18.88;;;;;;;3.78;66.10;97647.59;5035944;28;20088;-78
2023/02/16 00:39:29;;;;;;;29.40;18.58;;;;;;;3.66;65.89;97641.56;5034936;28;20057;-78
2023/02/16 00:44:32;;;;;;;26.50;17.95;;;;;;;3.59;67.38;97640.41;5065565;22;20053;-82
2023/02/16 00:47:02;;;;;;;27.17;19.38;;;;;;;3.59;67.07;97640.41;5042922;28;20140;-80
2023/02/16 00:49:30;;;;;;;26.75;18.42;;;;;;;3.55;66.61;97629.47;5043057;28;20049;-81
2023/02/16 00:51:57;;;;;;;28.52;19.02;;;;;;;3.57;67.16;97642.25;5046830;28;20140;-82
2023/02/16 00:54:25;;;;;;;28.55;19.13;;;;;;;3.54;67.13;97632.97;5044618;28;20056;-81
2023/02/16 00:56:53;;;;;;;26.95;18.23;;;;;;;3.59;67.54;97638.63;5046978;28;20057;-82
2023/02/16 00:59:22;;;;;;;26.05;16.67;;;;;;;3.67;67.47;97636.31;5045816;28;20140;-82
2023/02/16 01:01:51;;;;;;;26.20;16.60;;;;;;;3.75;67.55;97637.50;5046939;28;20046;-82
2023/02/16 01:04:22;;;;;;;25.95;17.80;;;;;;;3.80;67.48;97643.94;5046644;28;20053;-83
2023/02/16 01:12:21;;;;;;;28.27;19.08;;;;;;;3.75;66.67;97655.56;5046099;28;20054;-81
2023/02/16 01:14:52;;;;;;;26.50;17.85;;;;;;;3.68;66.72;97653.44;5046840;28;20112;-83
2023/02/16 01:17:21;;;;;;;27.45;18.95;;;;;;;3.60;66.59;97653.16;5045992;28;20562;-83
2023/02/16 01:19:49;;;;;;;24.90;18.00;;;;;;;3.55;67.01;97657.84;5047628;28;20052;-82
2023/02/16 01:22:17;;;;;;;27.67;17.88;;;;;;;3.49;67.00;97655.69;5048526;28;20064;-84
2023/02/16 01:24:44;;;;;;;28.67;18.70;;;;;;;3.46;67.10;97661.09;5048225;28;20056;-84
2023/02/16 01:27:13;;;;;;;29.13;18.80;;;;;;;3.38;67.14;97648.75;5048075;28;20113;-81
2023/02/16 01:29:40;;;;;;;28.25;18.50;;;;;;;3.29;67.57;97655.38;5047039;28;20046;-82
2023/02/16 01:32:11;;;;;;;24.98;17.65;;;;;;;3.22;67.98;97654.19;5047175;28;20061;-82
2023/02/16 01:34:41;;;;;;;27.48;18.80;;;;;;;3.18;68.17;97657.91;5046845;28;20053;-80
2023/02/16 01:37:13;;;;;;;29.05;17.77;;;;;;;3.18;68.40;97651.94;5047479;28;20108;-83
2023/02/16 01:39:41;;;;;;;;;;;;;;;3.23;68.81;97650.66;5046681;28;20077;-82
2023/02/16 01:42:25;;;;;;;24.15;16.95;;;;;;;3.22;68.20;97651.59;5047522;28;20016;-82
2023/02/16 01:44:58;;;;;;;28.95;19.63;;;;;;;3.20;67.97;97660.38;5046319;28;20151;-81
2023/02/16 01:47:37;;;;;;;22.77;17.02;;;;;;;3.16;68.05;97646.06;5046804;28;20594;-82
2023/02/16 01:50:19;;;;;;;25.73;16.70;;;;;;;3.14;68.15;97647.94;5045774;28;20053;-81
2023/02/16 01:52:52;;;;;;;25.88;17.75;;;;;;;3.08;68.24;97636.28;5045788;28;20417;-81
2023/02/16 01:55:24;;;;;;;26.20;17.10;;;;;;;3.00;68.03;97642.00;5046386;28;20522;-81
2023/02/16 01:57:58;;;;;;;25.02;16.05;;;;;;;2.95;68.37;97641.50;5044959;28;20103;-84
2023/02/16 02:00:30;;;;;;;25.65;16.30;;;;;;;2.97;68.01;97634.47;5044861;28;20050;-79
2023/02/16 02:05:44;;;;;;;24.60;16.60;;;;;;;2.93;68.46;97642.53;5044520;28;20109;-81
2023/02/16 02:08:24;;;;;;;27.60;16.25;;;;;;;2.93;68.42;97630.50;5044316;28;20053;-81
2023/02/16 02:11:07;;;;;;;25.92;16.83;;;;;;;2.90;68.51;97633.25;5044520;28;20053;-81
2023/02/16 02:13:40;;;;;;;27.98;17.05;;;;;;;2.91;68.30;97632.34;5044894;28;20049;-84
2023/02/16 02:16:09;;;;;;;28.52;17.23;;;;;;;2.93;68.02;97629.63;5044634;28;20080;-79
2023/02/16 02:18:37;;;;;;;28.45;17.52;;;;;;;2.92;68.23;97620.28;5043890;28;20057;-82
2023/02/16 02:24:36;;;;;;;27.02;16.00;;;;;;;3.05;68.84;97626.22;5044378;28;20060;-82
2023/02/16 02:27:18;;;;;;;25.70;16.45;;;;;;;3.07;68.31;97632.06;5044233;28;20049;-82
2023/02/16 02:30:04;;;;;;;24.75;16.30;;;;;;;3.12;67.91;97621.44;5043482;28;20514;-80
2023/02/16 02:32:46;;;;;;;25.20;16.40;;;;;;;3.14;67.64;97620.38;5044068;28;20053;-83
2023/02/16 02:35:28;;;;;;;24.80;16.30;;;;;;;3.13;68.04;97621.34;5043330;28;20117;-83
2023/02/16 02:38:01;;;;;;;26.48;16.38;;;;;;;3.14;67.89;97617.81;5044508;28;20057;-82
2023/02/16 02:40:39;;;;;;;22.73;14.43;;;;;;;3.20;69.46;97614.78;5045172;28;20045;-86
2023/02/16 02:43:14;;;;;;;22.65;15.75;;;;;;;3.24;68.42;97611.06;5044245;28;20080;-82
2023/02/16 02:45:45;;;;;;;22.70;16.33;;;;;;;3.27;67.72;97605.66;5043982;28;20049;-84
2023/02/16 02:48:13;;;;;;;23.80;15.77;;;;;;;3.25;67.09;97606.72;5043379;28;20109;-82
2023/02/16 02:51:27;;;;;;;25.00;16.58;;;;;;;3.22;67.31;97609.53;5044404;28;20071;-84
2023/02/16 02:53:37;;;;;;;24.77;15.90;;;;;;;3.17;67.15;97611.59;5044080;28;20072;-82
2023/02/16 03:01:50;;;;;;;24.70;15.95;;;;;;;3.05;66.95;97610.75;5042906;28;20049;-82
2023/02/16 03:04:24;;;;;;;26.23;16.30;;;;;;;3.05;67.43;97606.41;5043190;28;20495;-80
2023/02/16 03:06:54;;;;;;;23.73;15.55;;;;;;;3.02;66.85;97598.91;5043422;28;20423;-80
2023/02/16 03:09:22;;;;;;;26.35;17.25;;;;;;;2.95;67.14;97599.44;5042260;28;20104;-82
2023/02/16 03:14:43;;;;;;;23.58;14.82;;;;;;;2.87;66.97;97595.66;5042809;28;20060;-82
2023/02/16 03:31:16;;;;;;;23.73;16.20;;;;;;;3.03;68.05;97599.72;5043244;28;20107;-83
2023/02/16 03:33:45;;;;;;;20.23;13.85;;;;;;;3.06;67.89;97602.91;5043405;28;20049;-81
2023/02/16 03:36:13;;;;;;;24.55;15.40;;;;;;;3.09;67.27;97607.00;5044473;28;20053;-82
2023/02/16 03:38:41;;;;;;;23.73;15.32;;;;;;;3.09;67.50;97602.66;5044085;28;20056;-82
2023/02/16 03:41:09;;;;;;;20.65;14.68;;;;;;;3.08;67.58;97605.34;5044343;28;20114;-81
2023/02/16 03:43:36;;;;;;;22.30;13.43;;;;;;;3.05;67.77;97603.00;5043890;28;20060;-81
2023/02/16 03:46:04;;;;;;;21.80;14.48;;;;;;;3.06;68.35;97604.63;5043436;28;20491;-82
2023/02/16 03:48:33;;;;;;;21.55;14.43;;;;;;;3.09;68.20;97609.59;5046039;28;20054;-83
2023/02/16 03:51:01;;;;;;;23.38;15.85;;;;;;;3.11;68.07;97618.03;5047244;28;20084;-81
2023/02/16 03:53:29;;;;;;;19.55;13.80;;;;;;;3.14;68.22;97615.22;5047351;28;20057;-79
2023/02/16 03:55:57;;;;;;;21.50;14.02;;;;;;;3.11;67.94;97610.31;5048095;28;20157;-81
2023/02/16 03:58:25;;;;;;;21.08;15.13;;;;;;;3.08;67.39;97620.81;5044629;28;20496;-80
2023/02/16 04:00:53;;;;;;;22.60;13.80;;;;;;;3.02;67.54;97614.38;5044311;28;20080;-80
2023/02/16 04:03:21;;;;;;;23.98;14.85;;;;;;;3.02;67.02;97616.94;5044992;28;20050;-80
2023/02/16 04:05:50;;;;;;;23.38;15.52;;;;;;;3.00;67.23;97612.84;5044235;28;20053;-80
2023/02/16 04:08:17;;;;;;;24.85;13.75;;;;;;;2.98;67.27;97617.28;5043020;28;20558;-82
2023/02/16 04:10:45;;;;;;;20.88;14.27;;;;;;;3.00;67.67;97623.97;5044766;28;20050;-81
2023/02/16 04:13:12;;;;;;;20.65;14.10;;;;;;;3.02;67.05;97616.13;5046463;28;20049;-81
2023/02/16 04:15:41;;;;;;;20.45;13.63;;;;;;;2.99;66.53;97626.63;5041346;28;20080;-83
2023/02/16 04:18:08;;;;;;;21.77;14.23;;;;;;;2.99;67.40;97629.22;5040057;28;20071;-81
2023/02/16 04:20:36;;;;;;;20.42;12.52;;;;;;;3.02;67.09;97629.81;5041491;28;20068;-81
2023/02/16 04:23:05;;;;;;;21.73;13.88;;;;;;;3.08;67.01;97636.28;5041440;28;20049;-81
2023/02/16 04:25:33;;;;;;;24.42;14.45;;;;;;;3.03;66.75;97636.63;5046561;28;20057;-82
2023/02/16 04:28:00;;;;;;;23.23;13.85;;;;;;;3.01;67.38;97640.25;5042274;28;20053;-82
2023/02/16 04:30:30;;;;;;;24.00;15.27;;;;;;;3.01;66.72;97633.31;5047802;28;20140;-81
2023/02/16 04:32:58;;;;;;;22.45;14.85;;;;;;;2.94;66.15;97639.84;5048083;28;20041;-80
2023/02/16 04:35:26;;;;;;;20.35;14.13;;;;;;;2.84;66.25;97628.53;5048141;28;20048;-81
2023/02/16 04:37:54;;;;;;;25.17;16.98;;;;;;;2.78;66.17;97634.97;5046052;28;20140;-81
2023/02/16 04:40:23;;;;;;;24.23;15.13;;;;;;;2.71;66.20;97633.72;5044387;28;20487;-81
2023/02/16 04:42:50;;;;;;;23.73;14.52;;;;;;;2.69;66.68;97635.59;5047423;28;20133;-81
2023/02/16 04:45:18;;;;;;;21.02;14.10;;;;;;;2.64;66.23;97638.47;5048313;28;20140;-81
2023/02/16 04:47:46;;;;;;;21.15;14.27;;;;;;;2.63;66.45;97636.84;5046776;28;20053;-87
2023/02/16 04:50:13;;;;;;;23.15;14.63;;;;;;;2.64;66.91;97633.31;5047620;28;20053;-82
2023/02/16 04:52:41;;;;;;;23.60;15.85;;;;;;;2.63;66.56;97641.19;5047474;28;20077;-81
2023/02/16 04:55:09;;;;;;;22.90;14.77;;;;;;;2.58;66.05;97640.66;5048011;28;20057;-79
2023/02/16 04:57:39;;;;;;;23.98;15.93;;;;;;;2.49;66.28;97636.97;5046780;28;20593;-81
2023/02/16 05:00:10;;;;;;;23.23;14.93;;;;;;;2.42;66.57;97639.13;5047224;28;20124;-81
2023/02/16 05:02:38;;;;;;;22.00;14.65;;;;;;;2.38;66.58;97629.97;5046740;28;20069;-84
2023/02/16 05:05:06;;;;;;;20.67;14.23;;;;;;;2.39;66.70;97628.25;5047064;28;20076;-82
2023/02/16 05:07:35;;;;;;;23.15;14.25;;;;;;;2.39;66.93;97634.22;5044295;28;20053;-82
2023/02/16 05:10:02;;;;;;;22.77;14.05;;;;;;;2.41;66.69;97631.53;5043637;28;20049;-81
2023/02/16 05:15:17;;;;;;;22.27;14.27;;;;;;;2.39;66.87;97638.53;5047147;28;20460;-82
2023/02/16 05:17:44;;;;;;;19.98;12.93;;;;;;;2.30;66.63;97632.28;5045192;28;20050;-85
2023/02/16 05:20:13;;;;;;;20.85;13.18;;;;;;;2.22;66.81;97639.69;5045315;28;20594;-81
2023/02/16 05:22:42;;;;;;;20.77;13.63;;;;;;;2.13;66.64;97645.47;5045219;28;20140;-81
2023/02/16 05:25:09;;;;;;;21.27;13.88;;;;;;;2.03;67.24;97646.09;5046177;28;20052;-80
2023/02/16 05:27:37;;;;;;;19.80;13.20;;;;;;;2.01;67.63;97645.34;5043783;28;20046;-81
2023/02/16 05:30:06;;;;;;;20.88;13.35;;;;;;;2.05;67.40;97651.91;5045157;28;20140;-81
2023/02/16 05:32:35;;;;;;;21.67;13.75;;;;;;;2.12;67.44;97656.66;5045549;28;20060;-80
2023/02/16 05:35:03;;;;;;;19.00;12.48;;;;;;;2.13;67.08;97654.00;5046111;28;20049;-81
2023/02/16 05:37:31;;;;;;;17.75;12.85;;;;;;;2.10;67.17;97646.50;5044906;28;20133;-82
2023/02/16 05:39:58;;;;;;;21.10;13.25;;;;;;;2.09;67.17;97651.72;5045932;28;20140;-80
2023/02/16 05:42:26;;;;;;;20.30;13.30;;;;;;;2.06;67.35;97653.59;5046714;28;20046;-81
2023/02/16 05:44:53;;;;;;;22.52;14.00;;;;;;;2.01;67.58;97657.38;5045971;28;20109;-81
2023/02/16 05:47:21;;;;;;;24.17;14.20;;;;;;;1.96;67.58;97657.69;5046014;28;20053;-81
2023/02/16 05:49:50;;;;;;;20.50;13.40;;;;;;;1.93;67.55;97657.09;5045395;28;20057;-84
2023/02/16 05:52:17;;;;;;;20.45;13.55;;;;;;;1.92;67.81;97660.56;5046214;28;20430;-82
2023/02/16 05:54:45;;;;;;;23.20;14.68;;;;;;;1.88;67.54;97659.97;5046731;28;20076;-84
2023/02/16 05:57:13;;;;;;;25.38;14.27;;;;;;;1.87;68.05;97662.63;5049128;28;20046;-80
2023/02/16 05:59:40;;;;;;;21.02;13.15;;;;;;;1.84;67.90;97661.09;5040980;28;20059;-80
2023/02/16 06:02:08;;;;;;;24.63;12.88;;;;;;;1.82;67.93;97665.50;5044076;28;20041;-81
2023/02/16 06:04:36;;;;;;;21.38;14.25;;;;;;;1.84;68.07;97674.78;5038824;28;20105;-85
2023/02/16 06:07:05;;;;;;;23.10;14.25;;;;;;;1.83;67.49;97669.72;5050528;28;20049;-85
2023/02/16 06:09:33;;;;;;;22.20;14.00;;;;;;;1.83;67.67;97667.16;5068464;28;20065;-83
2023/02/16 06:12:00;;;;;;;21.17;14.02;;;;;;;1.81;68.16;97666.41;5050071;28;20056;-82
2023/02/16 06:14:28;;;;;;;20.73;14.05;;;;;;;1.80;67.98;97667.38;5049121;28;20057;-83
2023/02/16 06:16:57;;;;;;;20.23;14.02;;;;;;;1.76;67.69;97671.06;5064153;28;20081;-83
2023/02/16 06:19:25;;;;;;;21.88;14.15;;;;;;;1.70;68.00;97674.84;5057264;28;20073;-84
2023/02/16 06:21:52;;;;;;;19.80;14.02;;;;;;;1.65;67.71;97677.72;5048635;28;20060;-83
2023/02/16 06:24:21;;;;;;;20.02;13.88;;;;;;;1.63;68.33;97687.28;5049226;28;20068;-81
2023/02/16 06:26:49;;;;;;;19.92;12.93;;;;;;;1.67;68.33;97687.91;5048940;28;20053;-82
2023/02/16 06:29:16;;;;;;;23.98;14.23;;;;;;;1.72;68.07;97682.47;5048398;28;20041;-83
2023/02/16 06:31:44;;;;;;;23.65;14.35;;;;;;;1.72;68.01;97687.59;5047877;28;20392;-85
2023/02/16 06:34:12;;;;;;;19.48;13.05;;;;;;;1.70;68.25;97694.59;5047556;28;20054;-82
2023/02/16 06:36:39;;;;;;;19.95;13.52;;;;;;;1.72;67.97;97691.00;5057944;28;20049;-80
2023/02/16 06:39:09;;;;;;;21.83;13.07;;;;;;;1.76;68.08;97691.63;5047555;28;20088;-80
2023/02/16 06:41:39;;;;;;;21.75;14.45;;;;;;;1.78;68.29;97697.50;5046400;28;20492;-80
2023/02/16 06:44:11;;;;;;;23.23;14.10;;;;;;;1.84;67.98;97709.97;5083560;22;20041;-79
2023/02/16 06:46:38;;;;;;;22.10;13.90;;;;;;;1.92;68.41;97707.69;5073022;28;20087;-79
2023/02/16 06:49:06;;;;;;;21.30;14.10;;;;;;;1.96;68.15;97704.00;5072376;28;20056;-79
2023/02/16 06:51:34;;;;;;;23.38;13.98;;;;;;;1.95;67.64;97704.94;5072898;28;20417;-79
2023/02/16 06:54:01;;;;;;;21.52;14.52;;;;;;;1.95;67.88;97711.84;5085315;28;20421;-79
2023/02/16 06:56:29;;;;;;;17.90;12.93;;;;;;;2.00;67.81;97704.63;5083105;28;20054;-79
2023/02/16 06:58:58;;;;;;;20.45;13.73;;;;;;;2.03;67.58;97705.28;5077183;28;20063;-79
2023/02/16 07:01:25;;;;;;;19.92;12.75;;;;;;;2.01;67.52;97707.13;5095928;28;20494;-79
2023/02/16 07:03:55;;;;;;;22.60;12.93;;;;;;;1.99;67.56;97705.56;5093886;28;20055;-79
2023/02/16 07:06:23;;;;;;;21.42;13.75;;;;;;;1.98;67.85;97711.63;5085049;28;20131;-78
2023/02/16 07:08:52;;;;;;;25.33;13.82;;;;;;;1.91;67.65;97712.97;5087397;28;20047;-78
2023/02/16 07:11:20;;;;;;;22.08;13.98;;;;;;;1.88;67.68;97711.44;5091633;28;20048;-78
2023/02/16 07:13:47;;;;;;;48.88;27.27;;;;;;;1.86;68.08;97713.28;5078848;28;20044;-79
2023/02/16 07:16:16;;;;;;;26.23;17.40;;;;;;;1.87;68.04;97714.91;5090233;28;20071;-79
2023/02/16 07:18:47;;;;;;;28.63;15.77;;;;;;;1.92;67.99;97710.28;5092145;28;20051;-79
2023/02/16 07:21:15;;;;;;;25.05;15.75;;;;;;;1.95;68.17;97710.09;5087854;28;20062;-79
2023/02/16 07:23:43;;;;;;;17.77;12.40;;;;;;;2.01;68.17;97704.56;5093124;28;20107;-79
2023/02/16 07:26:11;;;;;;;17.90;12.80;;;;;;;2.11;67.77;97706.50;5085418;28;20378;-78
2023/02/16 07:28:38;;;;;;;19.25;13.57;;;;;;;2.24;67.72;97702.19;5087840;28;20071;-79
2023/02/16 07:31:08;;;;;;;19.98;13.85;;;;;;;2.34;67.29;97705.81;5080381;28;20798;-79
2023/02/16 07:33:38;;;;;;;18.10;12.75;;;;;;;2.40;67.48;97707.13;5074539;28;20118;-78
2023/02/16 07:36:06;;;;;;;19.55;12.32;;;;;;;2.50;66.87;97712.50;5106093;28;20104;-79
2023/02/16 07:38:34;;;;;;;22.73;13.48;;;;;;;2.57;66.86;97708.56;5097395;28;20048;-80
2023/02/16 07:41:02;;;;;;;20.58;12.23;;;;;;;2.70;66.58;97713.72;5076798;28;20041;-80
2023/02/16 07:43:33;;;;;;;19.90;12.63;;;;;;;2.94;66.58;97716.34;5096166;28;20040;-79
2023/02/16 07:46:01;;;;;;;18.52;12.18;;;;;;;3.47;64.87;97724.63;5106042;28;20098;-79
2023/02/16 07:48:28;;;;;;;18.35;12.48;;;;;;;3.68;63.98;97720.53;5090575;28;20052;-79
2023/02/16 07:50:58;;;;;;;18.00;12.18;;;;;;;3.75;63.73;97723.47;5073967;28;20059;-79
2023/02/16 07:53:26;;;;;;;17.10;12.50;;;;;;;3.76;63.60;97719.13;5081183;28;20068;-79
2023/02/16 07:55:53;;;;;;;17.15;12.00;;;;;;;3.60;63.91;97725.41;5086488;28;20502;-79
2023/02/16 07:58:26;;;;;;;18.70;12.85;;;;;;;3.51;64.66;97723.50;5086993;28;20064;-79
2023/02/16 08:00:56;;;;;;;23.13;14.20;;;;;;;3.47;64.66;97714.31;5085256;28;20113;-79
2023/02/16 08:03:24;;;;;;;19.33;12.63;;;;;;;3.47;65.09;97719.47;5092666;28;20048;-79
2023/02/16 08:05:52;;;;;;;17.63;11.80;;;;;;;3.51;65.13;97724.31;5086489;28;20422;-79
2023/02/16 08:08:21;;;;;;;16.75;11.63;;;;;;;3.56;65.06;97723.97;5090981;28;20131;-79
2023/02/16 08:10:48;;;;;;;20.05;13.48;;;;;;;3.63;65.37;97719.19;5095366;28;20044;-79
2023/02/16 08:13:16;;;;;;;18.25;11.77;;;;;;;3.70;65.45;97723.81;5089998;28;20131;-80
2023/02/16 08:15:44;;;;;;;16.65;12.25;;;;;;;3.79;65.07;97718.94;5095695;28;20417;-79
2023/02/16 08:18:12;;;;;;;22.38;13.50;;;;;;;3.88;64.65;97716.47;5095558;28;20090;-79
2023/02/16 08:20:40;;;;;;;20.10;14.00;;;;;;;4.04;64.21;97711.00;5094485;28;20040;-79
2023/02/16 08:23:28;;;;;;;21.05;13.45;;;;;;;4.53;64.12;97711.69;5095928;28;20418;-79
2023/02/16 08:25:57;;;;;;;20.45;14.27;;;;;;;5.95;61.41;97709.22;5094977;28;20063;-79
2023/02/16 08:28:27;;;;;;;22.88;14.88;;;;;;;7.67;55.95;97709.31;5084861;28;20552;-78
2023/02/16 08:30:55;;;;;;;23.70;13.90;;;;;;;8.22;54.30;97710.38;5083453;28;20044;-79
2023/02/16 08:33:23;;;;;;;23.17;15.73;;;;;;;8.21;53.90;97713.94;5095525;28;20142;-79
2023/02/16 08:35:51;;;;;;;25.92;16.27;;;;;;;8.17;53.89;97712.56;5095283;28;20485;-79
2023/02/16 08:38:19;;;;;;;25.45;15.20;;;;;;;8.06;54.52;97707.53;5086454;28;20048;-79
2023/02/16 08:40:49;;;;;;;22.67;14.18;;;;;;;8.00;54.16;97718.47;5088068;28;20044;-79
2023/02/16 08:43:16;;;;;;;19.67;12.82;;;;;;;7.89;55.32;97706.44;5075962;28;20127;-79
2023/02/16 08:45:44;;;;;;;20.25;12.40;;;;;;;7.71;55.06;97708.09;5085306;28;20066;-79
2023/02/16 08:48:12;;;;;;;23.08;13.10;;;;;;;7.57;55.52;97707.53;5074645;28;20048;-79
2023/02/16 08:50:45;;;;;;;19.77;13.48;;;;;;;7.54;55.75;97712.16;5084550;28;20048;-79
2023/02/16 08:53:14;;;;;;;18.85;13.23;;;;;;;7.62;55.94;97714.91;5094997;28;20066;-79
2023/02/16 08:55:41;;;;;;;25.45;14.02;;;;;;;7.78;55.85;97716.97;5095200;28;20091;-77
2023/02/16 08:58:10;;;;;;;19.90;13.73;;;;;;;7.90;55.41;97718.50;5093671;28;20103;-77
2023/02/16 09:00:38;;;;;;;18.90;13.02;;;;;;;7.98;55.37;97721.22;5104470;28;20103;-78
2023/02/16 09:03:05;;;;;;;17.63;12.63;;;;;;;8.01;55.69;97717.53;5106524;28;20079;-78
2023/02/16 09:05:34;;;;;;;19.95;12.40;;;;;;;8.08;55.31;97720.38;5104598;28;20134;-79
2023/02/16 09:08:02;;;;;;;16.95;12.25;;;;;;;8.19;55.33;97718.44;5093367;28;20075;-77
2023/02/16 09:10:30;;;;;;;17.00;12.30;;;;;;;8.32;55.45;97725.16;5082169;28;20079;-76
2023/02/16 09:12:57;;;;;;;19.05;14.57;;;;;;;8.49;54.97;97724.47;5085624;28;20765;-76
2023/02/16 09:15:26;;;;;;;19.40;14.88;;;;;;;8.70;54.15;97734.66;5080283;28;20052;-77
2023/02/16 09:17:54;;;;;;;20.20;13.98;;;;;;;8.90;54.23;97734.56;5093054;28;20501;-77
2023/02/16 09:20:22;;;;;;;19.48;13.80;;;;;;;9.05;53.67;97735.75;5089946;28;20082;-77
2023/02/16 09:22:49;;;;;;;19.95;14.27;;;;;;;9.20;53.36;97738.69;5075456;28;20052;-78
2023/02/16 09:25:17;;;;;;;20.17;14.15;;;;;;;9.37;52.68;97731.91;5082328;28;20464;-77
2023/02/16 09:27:45;;;;;;;19.77;13.68;;;;;;;9.52;52.84;97729.63;5093373;28;20478;-78
2023/02/16 09:30:13;;;;;;;23.73;16.05;;;;;;;9.76;52.26;97742.88;5096895;28;20425;-78
2023/02/16 09:32:42;;;;;;;27.55;16.65;;;;;;;9.98;51.35;97740.81;5089935;28;20150;-77
2023/02/16 09:35:10;;;;;;;23.80;15.35;;;;;;;10.14;51.17;97732.28;5084955;28;20044;-77
2023/02/16 09:37:38;;;;;;;22.58;16.00;;;;;;;10.27;51.44;97730.09;5092595;28;20048;-78
2023/02/16 09:40:07;;;;;;;22.98;15.38;;;;;;;10.42;50.79;97733.00;5084618;28;20075;-77
2023/02/16 09:42:47;;;;;;;20.05;13.70;;;;;;;10.60;49.34;97725.13;5084711;28;20058;-77
2023/02/16 09:45:19;;;;;;;21.58;14.30;;;;;;;10.77;50.03;97728.66;5093051;28;20044;-77
2023/02/16 09:47:51;;;;;;;21.80;14.23;;;;;;;11.01;49.17;97731.38;5079401;28;20076;-77
2023/02/16 09:50:21;;;;;;;23.33;13.95;;;;;;;11.32;48.97;97725.63;5093050;28;20071;-77
2023/02/16 09:53:19;;;;;;;18.50;13.85;;;;;;;11.66;47.16;97722.13;5091153;28;20047;-76
2023/02/16 09:55:56;;;;;;;18.42;13.15;;;;;;;11.90;47.67;97719.56;5090690;28;20127;-78
2023/02/16 09:58:30;;;;;;;18.85;13.45;;;;;;;12.10;46.84;97721.88;5093579;28;20453;-77
2023/02/16 10:01:07;;;;;;;18.67;12.93;;;;;;;12.25;45.10;97722.84;5092854;28;20500;-77
2023/02/16 10:03:53;;;;;;;18.27;12.80;;;;;;;12.46;44.96;97719.72;5092495;28;20083;-77
2023/02/16 10:06:29;;;;;;;21.45;12.77;;;;;;;12.67;44.13;97719.16;5074507;28;20051;-77
2023/02/16 10:09:01;;;;;;;20.67;13.20;;;;;;;12.86;44.17;97718.00;5091453;28;20174;-77
2023/02/16 10:11:40;;;;;;;21.48;13.02;;;;;;;13.06;44.01;97725.44;5093792;28;20044;-76
2023/02/16 10:14:15;;;;;;;21.23;12.75;;;;;;;13.27;43.16;97715.22;5086610;28;20079;-76
2023/02/16 10:16:49;;;;;;;19.77;13.23;;;;;;;13.50;43.72;97711.84;5087773;28;20089;-76
2023/02/16 10:19:23;;;;;;;17.15;12.35;;;;;;;13.72;42.67;97710.22;5083431;28;20052;-77
2023/02/16 10:21:56;;;;;;;19.38;12.63;;;;;;;13.94;42.19;97709.41;5090799;28;20055;-77
2023/02/16 10:24:26;;;;;;;17.50;10.88;;;;;;;14.16;41.64;97706.94;5092792;28;20040;-77
2023/02/16 10:27:02;;;;;;;14.93;10.90;;;;;;;14.39;41.92;97704.28;5103316;28;20083;-77
2023/02/16 10:29:29;;;;;;;16.23;11.60;;;;;;;14.62;41.07;97707.66;5093437;28;20524;-77
2023/02/16 10:32:07;;;;;;;18.50;12.20;;;;;;;14.82;40.73;97707.97;5091740;28;20048;-76
2023/02/16 10:34:49;;;;;;;24.80;11.95;;;;;;;15.00;40.17;97710.22;5073532;28;20410;-76
2023/02/16 10:37:39;;;;;;;19.00;9.73;;;;;;;15.22;39.24;97705.84;5089018;28;20065;-77
2023/02/16 10:40:18;;;;;;;16.27;9.55;;;;;;;15.39;38.15;97698.56;5080055;28;20070;-77
2023/02/16 10:42:55;;;;;;;16.50;9.40;;;;;;;15.60;38.65;97702.22;5086771;28;20056;-76
2023/02/16 10:45:27;;;;;;;13.13;8.82;;;;;;;15.77;38.60;97701.00;5088453;28;20072;-76
2023/02/16 10:47:55;;;;;;;16.15;8.82;;;;;;;15.96;38.66;97698.72;5071956;28;20048;-77
2023/02/16 10:50:28;;;;;;;14.02;8.57;;;;;;;16.17;37.54;97696.09;5083087;28;20051;-78
2023/02/16 10:52:59;;;;;;;10.75;8.18;;;;;;;16.38;36.46;97703.16;5111582;28;20048;-78
2023/02/16 10:55:27;;;;;;;12.20;8.07;;;;;;;16.56;36.73;97700.03;5110466;28;20078;-77
2023/02/16 10:57:57;;;;;;;11.40;8.85;;;;;;;16.76;36.43;97694.06;5106568;28;20115;-78
2023/02/16 11:00:43;;;;;;;11.07;7.95;;;;;;;16.96;36.10;97679.19;5092428;28;20048;-78
2023/02/16 11:03:14;;;;;;;12.80;8.70;;;;;;;17.23;34.70;97695.94;5075132;28;20048;-78
2023/02/16 11:05:43;;;;;;;14.43;8.63;;;;;;;17.48;33.77;97692.78;5093306;28;20559;-77
2023/02/16 11:08:12;;;;;;;11.65;7.72;;;;;;;17.64;33.57;97687.13;5091935;28;20052;-78
2023/02/16 11:10:47;;;;;;;11.35;7.30;;;;;;;17.82;32.37;97689.25;5093080;28;20051;-77
2023/02/16 11:13:25;;;;;;;12.75;8.75;;;;;;;18.08;31.37;97683.16;5092877;28;20513;-77
2023/02/16 11:15:56;;;;;;;10.82;7.57;;;;;;;18.32;31.68;97679.09;5090538;28;20040;-78
2023/02/16 11:18:30;;;;;;;9.23;6.82;;;;;;;18.51;31.03;97681.91;5092507;28;20091;-77
2023/02/16 11:21:07;;;;;;;10.40;7.57;;;;;;;18.68;30.75;97677.00;5090465;28;20499;-87
2023/02/16 11:23:39;;;;;;;10.88;6.80;;;;;;;18.83;30.55;97674.97;5086564;28;20048;-77
2023/02/16 11:26:27;;;;;;;10.90;6.85;;;;;;;19.02;30.68;97675.94;5083996;28;20127;-77
2023/02/16 11:29:07;;;;;;;8.05;5.97;;;;;;;19.27;29.42;97670.72;5090328;28;20055;-78
2023/02/16 11:31:38;;;;;;;10.35;6.35;;;;;;;19.49;29.69;97667.75;5079458;28;20135;-77
2023/02/16 11:34:16;;;;;;;10.40;6.25;;;;;;;19.56;28.24;97661.38;5087829;28;20559;-83
2023/02/16 11:36:47;;;;;;;10.05;5.95;;;;;;;19.57;29.50;97664.88;5095629;28;20075;-76
2023/02/16 11:39:18;;;;;;;7.22;6.45;;;;;;;19.54;28.58;97660.00;5089515;28;20161;-77
2023/02/16 11:41:51;;;;;;;11.88;7.00;;;;;;;19.54;28.15;97655.50;5091211;28;20510;-76
2023/02/16 11:44:26;;;;;;;11.15;6.65;;;;;;;19.54;28.04;97644.91;5064871;28;20052;-75
2023/02/16 11:46:56;;;;;;;8.95;6.30;;;;;;;19.67;28.88;97640.56;5051604;28;20077;-75
2023/02/16 11:49:32;;;;;;;6.70;5.10;;;;;;;19.71;28.57;97634.66;5059977;28;20082;-76
2023/02/16 11:52:17;;;;;;;10.73;6.22;;;;;;;19.80;27.87;97637.06;5053150;28;20503;-75
2023/02/16 11:54:49;;;;;;;8.55;6.40;;;;;;;19.90;27.44;97632.91;5054945;28;20095;-76
2023/02/16 11:57:24;;;;;;;7.88;6.00;;;;;;;19.88;27.02;97644.72;5065468;28;20052;-76
2023/02/16 11:59:51;;;;;;;7.10;4.93;;;;;;;19.84;27.83;97628.47;5059108;28;20494;-75
2023/02/16 12:03:06;;;;;;;7.75;5.55;;;;;;;19.87;27.89;97629.84;5064926;28;20072;-75
2023/02/16 12:05:41;;;;;;;7.72;4.63;;;;;;;19.97;27.70;97622.25;5067494;28;20131;-76
2023/02/16 12:08:23;;;;;;;9.77;6.00;;;;;;;20.11;26.79;97617.63;5060494;28;20068;-75
2023/02/16 12:11:06;;;;;;;6.40;4.82;;;;;;;20.22;27.11;97624.06;5062626;28;20086;-76
2023/02/16 12:13:44;;;;;;;6.65;5.38;;;;;;;20.28;26.97;97617.91;5067616;28;20045;-76
2023/02/16 12:16:24;;;;;;;8.32;4.93;;;;;;;20.38;26.01;97618.22;5064656;28;20057;-76
2023/02/16 12:19:07;;;;;;;7.65;4.78;;;;;;;20.52;25.75;97608.28;5070976;28;20048;-78
2023/02/16 12:21:40;;;;;;;7.50;4.65;;;;;;;20.60;25.83;97608.03;5078059;28;20061;-82
2023/02/16 12:24:23;;;;;;;6.47;4.75;;;;;;;20.64;25.99;97616.31;5076428;28;20052;-82